Lawton, Oklahoma
Current Conditions -  °F | °C
As of 5:12 PM on Thursday 18 Dec 2014 (Local Time) from KFSI Reporting Station
Overcast Overcast  
Wind Chill: 38°   Ceiling: 700
Heat Index: 43°   Visibility: 10mi
Dew Point: 43°   Wind: 8mph
Humidity: 100%   Direction: 40°NE
Pressure: 30.13"   Gusts: NA
Location:  34.61°N, 98.39°W
Report Text: KFSI 182312Z AUTO 04007KT 10SM OVC007 06/06 A3013 RMK AO2 UPE2301DZB2301E2307
Loading
Personal Weather Stations






























Interactive Weather Map New forecast layout! Learn more

10-Day Weather Forecast

Advertisements
Track Severe Weather on mobile